sensor_id;sensor_type;location;lat;lon;timestamp;pressure;altitude;pressure_sealevel;temperature;humidity
61880;BME280;47817;52.798;27.544;2023-02-28T00:01:23;1036.5;;;-1.1;67.2
61880;BME280;47817;52.798;27.544;2023-02-28T00:06:47;1036.6;;;-1.2;67.2
61880;BME280;47817;52.798;27.544;2023-02-28T00:12:01;1036.6;;;-1.2;67.3
61880;BME280;47817;52.798;27.544;2023-02-28T00:16:23;1036.6;;;-1.4;67.5
61880;BME280;47817;52.798;27.544;2023-02-28T00:21:59;1036.5;;;-1.5;67.6
61880;BME280;47817;52.798;27.544;2023-02-28T00:26:11;1036.6;;;-1.5;67.5
61880;BME280;47817;52.798;27.544;2023-02-28T00:31:45;1036.6;;;-1.4;67.5
61880;BME280;47817;52.798;27.544;2023-02-28T00:36:59;1036.6;;;-1.4;67.7
61880;BME280;47817;52.798;27.544;2023-02-28T00:42:01;1036.6;;;-1.5;67.8
61880;BME280;47817;52.798;27.544;2023-02-28T00:46:37;1036.6;;;-1.5;68.1
61880;BME280;47817;52.798;27.544;2023-02-28T00:51:11;1036.5;;;-1.5;68.3
61880;BME280;47817;52.798;27.544;2023-02-28T00:56:47;1036.5;;;-1.5;68.5
61880;BME280;47817;52.798;27.544;2023-02-28T01:01:11;1036.5;;;-1.5;68.4
61880;BME280;47817;52.798;27.544;2023-02-28T01:07:01;1036.6;;;-1.5;68.6
61880;BME280;47817;52.798;27.544;2023-02-28T01:11:37;1036.7;;;-1.6;68.7
61880;BME280;47817;52.798;27.544;2023-02-28T01:16:35;1036.7;;;-1.6;68.5
61880;BME280;47817;52.798;27.544;2023-02-28T01:21:47;1036.7;;;-1.6;68.4
61880;BME280;47817;52.798;27.544;2023-02-28T01:26:25;1036.6;;;-1.6;68.5
61880;BME280;47817;52.798;27.544;2023-02-28T01:31:57;1036.7;;;-1.6;68.7
61880;BME280;47817;52.798;27.544;2023-02-28T01:36:35;1036.7;;;-1.5;68.8
61880;BME280;47817;52.798;27.544;2023-02-28T01:41:24;1036.7;;;-1.6;68.7
61880;BME280;47817;52.798;27.544;2023-02-28T01:46:14;1036.6;;;-1.7;68.7
61880;BME280;47817;52.798;27.544;2023-02-28T01:51:38;1036.6;;;-1.7;68.9
61880;BME280;47817;52.798;27.544;2023-02-28T01:57:00;1036.6;;;-1.7;68.9
61880;BME280;47817;52.798;27.544;2023-02-28T02:01:35;1036.6;;;-1.7;69.1
61880;BME280;47817;52.798;27.544;2023-02-28T02:06:11;1036.6;;;-1.8;69.3
61880;BME280;47817;52.798;27.544;2023-02-28T02:11:47;1036.7;;;-2;69.6
61880;BME280;47817;52.798;27.544;2023-02-28T02:16:37;1036.7;;;-1.9;69.5
61880;BME280;47817;52.798;27.544;2023-02-28T02:22:12;1036.7;;;-1.9;69.4
61880;BME280;47817;52.798;27.544;2023-02-28T02:26:28;1036.7;;;-1.9;69.4
61880;BME280;47817;52.798;27.544;2023-02-28T02:31:18;1036.6;;;-1.9;69.5
61880;BME280;47817;52.798;27.544;2023-02-28T02:36:21;1036.6;;;-2;69.6
61880;BME280;47817;52.798;27.544;2023-02-28T02:41:36;1036.5;;;-2;69.7
61880;BME280;47817;52.798;27.544;2023-02-28T02:47:02;1036.5;;;-2;69.6
61880;BME280;47817;52.798;27.544;2023-02-28T02:51:39;1036.5;;;-1.9;69.9
61880;BME280;47817;52.798;27.544;2023-02-28T02:56:35;1036.5;;;-2;70.1
61880;BME280;47817;52.798;27.544;2023-02-28T03:01:45;1036.5;;;-2.1;69.9
61880;BME280;47817;52.798;27.544;2023-02-28T03:06:23;1036.6;;;-2.1;69.8
61880;BME280;47817;52.798;27.544;2023-02-28T03:11:59;1036.6;;;-2;69.7
61880;BME280;47817;52.798;27.544;2023-02-28T03:16:36;1036.6;;;-2;69.7
61880;BME280;47817;52.798;27.544;2023-02-28T03:21:12;1036.6;;;-2;69.8
61880;BME280;47817;52.798;27.544;2023-02-28T03:26:50;1036.7;;;-1.9;69.9
61880;BME280;47817;52.798;27.544;2023-02-28T03:31:26;1036.8;;;-2;70.2
61880;BME280;47817;52.798;27.544;2023-02-28T03:36:59;1036.8;;;-2.1;70.3
61880;BME280;47817;52.798;27.544;2023-02-28T03:41:38;1036.8;;;-2.1;70.4
61880;BME280;47817;52.798;27.544;2023-02-28T03:46:23;1036.8;;;-2.1;70.2
61880;BME280;47817;52.798;27.544;2023-02-28T03:51:45;1036.8;;;-2.1;70.1
61880;BME280;47817;52.798;27.544;2023-02-28T03:56:12;1036.8;;;-2.2;70.2
61880;BME280;47817;52.798;27.544;2023-02-28T04:01:59;1036.9;;;-2.3;70.5
61880;BME280;47817;52.798;27.544;2023-02-28T04:06:13;1036.9;;;-2.3;70.8
61880;BME280;47817;52.798;27.544;2023-02-28T04:11:14;1036.9;;;-2.3;70.6
61880;BME280;47817;52.798;27.544;2023-02-28T04:16:34;1036.9;;;-2.4;70.7
61880;BME280;47817;52.798;27.544;2023-02-28T04:21:11;1036.8;;;-2.4;71
61880;BME280;47817;52.798;27.544;2023-02-28T04:26:59;1036.9;;;-2.5;71
61880;BME280;47817;52.798;27.544;2023-02-28T04:31:37;1036.9;;;-2.5;71
61880;BME280;47817;52.798;27.544;2023-02-28T04:36:23;1037;;;-2.5;71.2
61880;BME280;47817;52.798;27.544;2023-02-28T04:41:47;1036.9;;;-2.5;71.2
61880;BME280;47817;52.798;27.544;2023-02-28T04:46:23;1036.9;;;-2.4;71.2
61880;BME280;47817;52.798;27.544;2023-02-28T04:51:59;1036.9;;;-2.4;71
61880;BME280;47817;52.798;27.544;2023-02-28T04:56:33;1036.9;;;-2.4;71.1
61880;BME280;47817;52.798;27.544;2023-02-28T05:01:16;1036.9;;;-2.4;71
61880;BME280;47817;52.798;27.544;2023-02-28T05:06:43;1036.9;;;-2.4;71.1
61880;BME280;47817;52.798;27.544;2023-02-28T05:11:14;1036.9;;;-2.4;71.1
61880;BME280;47817;52.798;27.544;2023-02-28T05:16:59;1037;;;-2.5;70.8
61880;BME280;47817;52.798;27.544;2023-02-28T05:21:20;1037;;;-2.6;70.7
61880;BME280;47817;52.798;27.544;2023-02-28T05:26:59;1037.1;;;-2.6;70.5
61880;BME280;47817;52.798;27.544;2023-02-28T05:31:45;1037;;;-2.6;70.2
61880;BME280;47817;52.798;27.544;2023-02-28T05:36:11;1037;;;-2.5;70
61880;BME280;47817;52.798;27.544;2023-02-28T05:41:57;1036.9;;;-2.5;69.8
61880;BME280;47817;52.798;27.544;2023-02-28T05:46:35;1036.9;;;-2.5;69.6
61880;BME280;47817;52.798;27.544;2023-02-28T05:51:57;1036.9;;;-2.4;69.5
61880;BME280;47817;52.798;27.544;2023-02-28T05:56:33;1036.9;;;-2.4;69.6
61880;BME280;47817;52.798;27.544;2023-02-28T06:01:20;1037;;;-2.3;69.4
61880;BME280;47817;52.798;27.544;2023-02-28T06:06:57;1036.9;;;-2.3;69.2
61880;BME280;47817;52.798;27.544;2023-02-28T06:11:43;1036.9;;;-2.2;69
61880;BME280;47817;52.798;27.544;2023-02-28T06:16:57;1037;;;-2.4;68.5
61880;BME280;47817;52.798;27.544;2023-02-28T06:21:33;1037;;;-2.5;68.3
61880;BME280;47817;52.798;27.544;2023-02-28T06:26:11;1036.9;;;-2.3;68.2
61880;BME280;47817;52.798;27.544;2023-02-28T06:31:57;1036.9;;;-2.2;67.8
61880;BME280;47817;52.798;27.544;2023-02-28T06:36:21;1037;;;-2.3;67.8
61880;BME280;47817;52.798;27.544;2023-02-28T06:41:59;1037.1;;;-2.3;67.7
61880;BME280;47817;52.798;27.544;2023-02-28T06:46:45;1037.1;;;-2.1;67.6
61880;BME280;47817;52.798;27.544;2023-02-28T06:51:21;1037;;;-2;67.4
61880;BME280;47817;52.798;27.544;2023-02-28T06:56:57;1037;;;-1.8;67.2
61880;BME280;47817;52.798;27.544;2023-02-28T07:01:23;1037.1;;;-1.7;67.1
61880;BME280;47817;52.798;27.544;2023-02-28T07:06:57;1037.1;;;-1.8;66.6
61880;BME280;47817;52.798;27.544;2023-02-28T07:11:45;1037.1;;;-1.7;66.5
61880;BME280;47817;52.798;27.544;2023-02-28T07:16:11;1037;;;-1.5;66.2
61880;BME280;47817;52.798;27.544;2023-02-28T07:21:59;1037;;;-1.5;65.9
61880;BME280;47817;52.798;27.544;2023-02-28T07:26:12;1037.1;;;-1.4;66
61880;BME280;47817;52.798;27.544;2023-02-28T07:31:59;1037;;;-1.4;65.8
61880;BME280;47817;52.798;27.544;2023-02-28T07:36:45;1037;;;-1.3;64.9
61880;BME280;47817;52.798;27.544;2023-02-28T07:41:11;1037;;;-1;64.4
61880;BME280;47817;52.798;27.544;2023-02-28T07:46:57;1037;;;-1;64.1
61880;BME280;47817;52.798;27.544;2023-02-28T07:51:35;1036.9;;;-0.8;64
61880;BME280;47817;52.798;27.544;2023-02-28T07:56:57;1036.9;;;-1.1;63.8
61880;BME280;47817;52.798;27.544;2023-02-28T08:01:41;1036.9;;;-1;63.7
61880;BME280;47817;52.798;27.544;2023-02-28T08:06:15;1036.8;;;-0.9;63.3
61880;BME280;47817;52.798;27.544;2023-02-28T08:11:57;1036.7;;;-0.5;63.1
61880;BME280;47817;52.798;27.544;2023-02-28T08:16:33;1036.6;;;0.1;61.7
61880;BME280;47817;52.798;27.544;2023-02-28T08:21:57;1036.6;;;-0.2;61.7
61880;BME280;47817;52.798;27.544;2023-02-28T08:26:43;1036.6;;;-0.5;61.9
61880;BME280;47817;52.798;27.544;2023-02-28T08:31:12;1036.7;;;-0.7;62
61880;BME280;47817;52.798;27.544;2023-02-28T08:36:57;1036.6;;;-0.7;62.1
61880;BME280;47817;52.798;27.544;2023-02-28T08:41:35;1036.7;;;-0.6;61.9
61880;BME280;47817;52.798;27.544;2023-02-28T08:46:43;1036.7;;;-0.6;61.6
61880;BME280;47817;52.798;27.544;2023-02-28T08:51:43;1036.7;;;-0.6;61.6
61880;BME280;47817;52.798;27.544;2023-02-28T08:56:43;1036.5;;;-0.4;61.5
61880;BME280;47817;52.798;27.544;2023-02-28T09:01:43;1036.4;;;-0.1;61.1
61880;BME280;47817;52.798;27.544;2023-02-28T09:06:35;1036.4;;;-0.1;60.9
61880;BME280;47817;52.798;27.544;2023-02-28T09:11:57;1036.4;;;0.2;61
61880;BME280;47817;52.798;27.544;2023-02-28T09:16:41;1036.5;;;0.4;60.4
61880;BME280;47817;52.798;27.544;2023-02-28T09:21:23;1036.6;;;0.3;60.2
61880;BME280;47817;52.798;27.544;2023-02-28T09:26:43;1036.5;;;0.6;60.1
61880;BME280;47817;52.798;27.544;2023-02-28T09:31:35;1036.5;;;0.6;59.8
61880;BME280;47817;52.798;27.544;2023-02-28T09:36:57;1036.4;;;0.7;60.1
61880;BME280;47817;52.798;27.544;2023-02-28T09:41:47;1036.4;;;1.1;60
61880;BME280;47817;52.798;27.544;2023-02-28T09:46:32;1036.5;;;1.3;59.7
61880;BME280;47817;52.798;27.544;2023-02-28T09:51:44;1036.4;;;1.3;59.2
61880;BME280;47817;52.798;27.544;2023-02-28T09:56:24;1036.3;;;1.2;59.6
61880;BME280;47817;52.798;27.544;2023-02-28T10:02:00;1036.3;;;1.2;59.7
61880;BME280;47817;52.798;27.544;2023-02-28T10:06:44;1036.2;;;1.2;59.8
61880;BME280;47817;52.798;27.544;2023-02-28T10:11:35;1036.2;;;1.2;60
61880;BME280;47817;52.798;27.544;2023-02-28T10:16:46;1036.1;;;1.5;60
61880;BME280;47817;52.798;27.544;2023-02-28T10:21:34;1036;;;1.6;59.6
61880;BME280;47817;52.798;27.544;2023-02-28T10:26:56;1035.9;;;1.6;59.5
61880;BME280;47817;52.798;27.544;2023-02-28T10:31:45;1035.8;;;1.7;59.3
61880;BME280;47817;52.798;27.544;2023-02-28T10:36:33;1035.7;;;1.8;59.3
61880;BME280;47817;52.798;27.544;2023-02-28T10:41:45;1035.6;;;2.1;58.8
61880;BME280;47817;52.798;27.544;2023-02-28T10:46:23;1035.5;;;2.3;58.4
61880;BME280;47817;52.798;27.544;2023-02-28T10:51:58;1035.4;;;2.4;58.2
61880;BME280;47817;52.798;27.544;2023-02-28T10:56:22;1035.4;;;2.5;57.7
61880;BME280;47817;52.798;27.544;2023-02-28T11:01:24;1035.3;;;2.7;57.8
61880;BME280;47817;52.798;27.544;2023-02-28T11:06:43;1035.1;;;3;57.2
61880;BME280;47817;52.798;27.544;2023-02-28T11:11:41;1035;;;3.1;56.6
61880;BME280;47817;52.798;27.544;2023-02-28T11:16:43;1035;;;3.2;56.3
61880;BME280;47817;52.798;27.544;2023-02-28T11:21:45;1035;;;3.2;56
61880;BME280;47817;52.798;27.544;2023-02-28T11:26:38;1035;;;3.3;55.9
61880;BME280;47817;52.798;27.544;2023-02-28T11:32:00;1034.9;;;3.5;55.2
61880;BME280;47817;52.798;27.544;2023-02-28T11:36:37;1034.8;;;3.6;54.4
61880;BME280;47817;52.798;27.544;2023-02-28T11:41:59;1034.8;;;3.5;52.9
61880;BME280;47817;52.798;27.544;2023-02-28T11:46:17;1034.7;;;3.5;53.2
61880;BME280;47817;52.798;27.544;2023-02-28T11:51:14;1034.6;;;3.7;53.3
61880;BME280;47817;52.798;27.544;2023-02-28T11:56:46;1034.5;;;3.8;53
61880;BME280;47817;52.798;27.544;2023-02-28T12:01:15;1034.5;;;3.7;52.9
61880;BME280;47817;52.798;27.544;2023-02-28T12:06:57;1034.5;;;3.7;52.6
61880;BME280;47817;52.798;27.544;2023-02-28T12:11:48;1034.5;;;3.7;52.5
61880;BME280;47817;52.798;27.544;2023-02-28T12:16:39;1034.3;;;3.7;52.6
61880;BME280;47817;52.798;27.544;2023-02-28T12:21:53;1034.2;;;3.8;52.5
61880;BME280;47817;52.798;27.544;2023-02-28T12:26:47;1034.1;;;4;52.3
61880;BME280;47817;52.798;27.544;2023-02-28T12:32:02;1034;;;4.2;51.7
61880;BME280;47817;52.798;27.544;2023-02-28T12:36:47;1033.8;;;4.4;50.8
61880;BME280;47817;52.798;27.544;2023-02-28T12:41:12;1033.7;;;4.5;49.4
61880;BME280;47817;52.798;27.544;2023-02-28T12:46:48;1033.6;;;4.8;48.9
61880;BME280;47817;52.798;27.544;2023-02-28T12:51:47;1033.5;;;5;48.8
61880;BME280;47817;52.798;27.544;2023-02-28T12:57:01;1033.5;;;5.3;49.1
61880;BME280;47817;52.798;27.544;2023-02-28T13:01:16;1033.4;;;5.4;48.3
61880;BME280;47817;52.798;27.544;2023-02-28T13:06:57;1033.4;;;5.5;46.2
61880;BME280;47817;52.798;27.544;2023-02-28T13:11:59;1033.4;;;5.6;45.5
61880;BME280;47817;52.798;27.544;2023-02-28T13:17:39;1033.5;;;5.6;44.4
61880;BME280;47817;52.798;27.544;2023-02-28T13:21:43;1033.6;;;5.3;43.1
61880;BME280;47817;52.798;27.544;2023-02-28T13:27:41;1033.5;;;5.3;43
61880;BME280;47817;52.798;27.544;2023-02-28T13:31:11;1033.4;;;5.6;43
61880;BME280;47817;52.798;27.544;2023-02-28T13:37:29;1033.4;;;5.6;42
61880;BME280;47817;52.798;27.544;2023-02-28T13:41:44;1033.4;;;5.5;41.9
61880;BME280;47817;52.798;27.544;2023-02-28T13:51:39;1033.2;;;5.7;41.5
61880;BME280;47817;52.798;27.544;2023-02-28T13:56:26;1033;;;5.7;40.2
61880;BME280;47817;52.798;27.544;2023-02-28T14:02:06;1032.8;;;6.3;39.8
61880;BME280;47817;52.798;27.544;2023-02-28T14:06:24;1032.7;;;7.9;37.4
61880;BME280;47817;52.798;27.544;2023-02-28T14:11:24;1032.5;;;8.9;35.6
61880;BME280;47817;52.798;27.544;2023-02-28T14:16:39;1032.3;;;9.8;33.9
61880;BME280;47817;52.798;27.544;2023-02-28T14:21:22;1032.2;;;11.3;32.5
61880;BME280;47817;52.798;27.544;2023-02-28T14:27:03;1032.3;;;11.9;31.4
61880;BME280;47817;52.798;27.544;2023-02-28T14:31:23;1032.2;;;12.4;31
61880;BME280;47817;52.798;27.544;2023-02-28T14:36:45;1032.1;;;13.6;30
61880;BME280;47817;52.798;27.544;2023-02-28T14:41:26;1032;;;13.6;29.6
61880;BME280;47817;52.798;27.544;2023-02-28T14:46:24;1032;;;13.5;28.7
61880;BME280;47817;52.798;27.544;2023-02-28T14:52:01;1032;;;14.6;29.2
61880;BME280;47817;52.798;27.544;2023-02-28T14:56:22;1032;;;14.7;29.3
61880;BME280;47817;52.798;27.544;2023-02-28T15:01:43;1031.9;;;14.6;29.5
61880;BME280;47817;52.798;27.544;2023-02-28T15:06:35;1031.9;;;14;29.7
61880;BME280;47817;52.798;27.544;2023-02-28T15:11:35;1032;;;12.3;31.1
61880;BME280;47817;52.798;27.544;2023-02-28T15:16:59;1032;;;10.4;32.8
61880;BME280;47817;52.798;27.544;2023-02-28T15:21:12;1032;;;10;33.1
61880;BME280;47817;52.798;27.544;2023-02-28T15:26:46;1031.9;;;10.2;32.9
61880;BME280;47817;52.798;27.544;2023-02-28T15:31:20;1031.9;;;9.6;33
61880;BME280;47817;52.798;27.544;2023-02-28T15:36:24;1031.9;;;9;33.8
61880;BME280;47817;52.798;27.544;2023-02-28T15:42:17;1031.8;;;7.5;35
61880;BME280;47817;52.798;27.544;2023-02-28T15:46:25;1031.7;;;5.9;37.1
61880;BME280;47817;52.798;27.544;2023-02-28T15:51:45;1031.7;;;5;38.8
61880;BME280;47817;52.798;27.544;2023-02-28T15:56:37;1031.5;;;4.4;40.1
61880;BME280;47817;52.798;27.544;2023-02-28T16:01:20;1031.5;;;3.9;41.8
61880;BME280;47817;52.798;27.544;2023-02-28T16:07:02;1031.5;;;3.6;43.1
61880;BME280;47817;52.798;27.544;2023-02-28T16:11:46;1031.6;;;3.4;44.2
61880;BME280;47817;52.798;27.544;2023-02-28T16:16:46;1031.5;;;3.1;45.2
61880;BME280;47817;52.798;27.544;2023-02-28T16:21:11;1031.7;;;2.9;46
61880;BME280;47817;52.798;27.544;2023-02-28T16:26:23;1031.8;;;2.8;46.7
61880;BME280;47817;52.798;27.544;2023-02-28T16:31:59;1031.9;;;2.7;47.3
61880;BME280;47817;52.798;27.544;2023-02-28T16:36:35;1031.8;;;2.5;47.8
61880;BME280;47817;52.798;27.544;2023-02-28T16:41:44;1031.9;;;2.4;48.3
61880;BME280;47817;52.798;27.544;2023-02-28T16:46:11;1032;;;2.3;48.5
61880;BME280;47817;52.798;27.544;2023-02-28T16:51:23;1032;;;2.2;48.6
61880;BME280;47817;52.798;27.544;2023-02-28T16:56:59;1031.9;;;2.2;49
61880;BME280;47817;52.798;27.544;2023-02-28T17:01:37;1031.9;;;2.1;49.7
61880;BME280;47817;52.798;27.544;2023-02-28T17:06:45;1031.9;;;2;49.9
61880;BME280;47817;52.798;27.544;2023-02-28T17:11:37;1032;;;2;50.3
61880;BME280;47817;52.798;27.544;2023-02-28T17:16:26;1031.9;;;1.9;50.5
61880;BME280;47817;52.798;27.544;2023-02-28T17:21:33;1032;;;1.8;51
61880;BME280;47817;52.798;27.544;2023-02-28T17:26:25;1032.1;;;1.8;51.2
61880;BME280;47817;52.798;27.544;2023-02-28T17:31:59;1032.2;;;1.8;51.4
61880;BME280;47817;52.798;27.544;2023-02-28T17:36:59;1032.2;;;1.7;51.6
61880;BME280;47817;52.798;27.544;2023-02-28T17:41:11;1032.2;;;1.7;51.9
61880;BME280;47817;52.798;27.544;2023-02-28T17:46:24;1032.2;;;1.6;52.2
61880;BME280;47817;52.798;27.544;2023-02-28T17:51:11;1032.1;;;1.5;52.6
61880;BME280;47817;52.798;27.544;2023-02-28T17:56:59;1032.1;;;1.5;52.9
61880;BME280;47817;52.798;27.544;2023-02-28T18:01:47;1032.1;;;1.4;53.1
61880;BME280;47817;52.798;27.544;2023-02-28T18:06:24;1032.1;;;1.4;53.1
61880;BME280;47817;52.798;27.544;2023-02-28T18:11:31;1032;;;1.4;53.2
61880;BME280;47817;52.798;27.544;2023-02-28T18:16:25;1031.8;;;1.3;53.2
61880;BME280;47817;52.798;27.544;2023-02-28T18:21:57;1031.7;;;1.3;53.1
61880;BME280;47817;52.798;27.544;2023-02-28T18:26:38;1031.6;;;1.3;53.4
61880;BME280;47817;52.798;27.544;2023-02-28T18:31:12;1031.5;;;1.3;53.5
61880;BME280;47817;52.798;27.544;2023-02-28T18:36:33;1031.5;;;1.3;53.6
61880;BME280;47817;52.798;27.544;2023-02-28T18:41:33;1031.5;;;1.3;53.9
61880;BME280;47817;52.798;27.544;2023-02-28T18:46:59;1031.6;;;1.3;54
61880;BME280;47817;52.798;27.544;2023-02-28T18:51:49;1031.6;;;1.2;54.5
61880;BME280;47817;52.798;27.544;2023-02-28T18:56:12;1031.5;;;1.2;54.8
61880;BME280;47817;52.798;27.544;2023-02-28T19:01:31;1031.5;;;1.2;55.4
61880;BME280;47817;52.798;27.544;2023-02-28T19:06:33;1031.4;;;1.1;56
61880;BME280;47817;52.798;27.544;2023-02-28T19:11:59;1031.5;;;1.1;56.4
61880;BME280;47817;52.798;27.544;2023-02-28T19:16:49;1031.5;;;1.1;56.9
61880;BME280;47817;52.798;27.544;2023-02-28T19:21:12;1031.5;;;1.1;57.3
61880;BME280;47817;52.798;27.544;2023-02-28T19:26:24;1031.5;;;1.1;57.7
61880;BME280;47817;52.798;27.544;2023-02-28T19:31:12;1031.5;;;1.1;57.9
61880;BME280;47817;52.798;27.544;2023-02-28T19:36:59;1031.5;;;1.1;58.1
61880;BME280;47817;52.798;27.544;2023-02-28T19:41:49;1031.4;;;1.1;58.4
61880;BME280;47817;52.798;27.544;2023-02-28T19:46:33;1031.3;;;1.2;58.8
61880;BME280;47817;52.798;27.544;2023-02-28T19:51:33;1031.2;;;1.2;59
61880;BME280;47817;52.798;27.544;2023-02-28T19:56:11;1031.2;;;1.2;59.4
61880;BME280;47817;52.798;27.544;2023-02-28T20:01:57;1031.2;;;1.1;59.7
61880;BME280;47817;52.798;27.544;2023-02-28T20:06:49;1031.2;;;1.1;60
61880;BME280;47817;52.798;27.544;2023-02-28T20:11:25;1031.1;;;1.1;60.3
61880;BME280;47817;52.798;27.544;2023-02-28T20:16:47;1031;;;1.1;60.4
61880;BME280;47817;52.798;27.544;2023-02-28T20:21:23;1030.9;;;1;60.7
61880;BME280;47817;52.798;27.544;2023-02-28T20:26:57;1030.7;;;1;60.8
61880;BME280;47817;52.798;27.544;2023-02-28T20:31:49;1030.5;;;1;61
61880;BME280;47817;52.798;27.544;2023-02-28T20:36:19;1030.5;;;1;61
61880;BME280;47817;52.798;27.544;2023-02-28T20:41:33;1030.5;;;1;61.1
61880;BME280;47817;52.798;27.544;2023-02-28T20:46:11;1030.4;;;0.9;61.2
61880;BME280;47817;52.798;27.544;2023-02-28T20:51:59;1030.3;;;0.9;61.3
61880;BME280;47817;52.798;27.544;2023-02-28T20:56:47;1030.1;;;0.9;61.7
61880;BME280;47817;52.798;27.544;2023-02-28T21:01:26;1030.1;;;0.9;62
61880;BME280;47817;52.798;27.544;2023-02-28T21:06:34;1030;;;0.8;62.4
61880;BME280;47817;52.798;27.544;2023-02-28T21:11:24;1029.9;;;0.8;62.5
61880;BME280;47817;52.798;27.544;2023-02-28T21:16:59;1029.8;;;0.8;62.8
61880;BME280;47817;52.798;27.544;2023-02-28T21:21:49;1029.8;;;0.8;63
61880;BME280;47817;52.798;27.544;2023-02-28T21:26:57;1029.7;;;0.8;63.2
61880;BME280;47817;52.798;27.544;2023-02-28T21:31:33;1029.8;;;0.8;63.4
61880;BME280;47817;52.798;27.544;2023-02-28T21:36:24;1029.8;;;0.8;63.4
61880;BME280;47817;52.798;27.544;2023-02-28T21:41:59;1029.8;;;0.8;63.3
61880;BME280;47817;52.798;27.544;2023-02-28T21:46:48;1029.8;;;0.8;63.4
61880;BME280;47817;52.798;27.544;2023-02-28T21:52:00;1029.8;;;0.8;63.6
61880;BME280;47817;52.798;27.544;2023-02-28T21:56:33;1029.7;;;0.8;63.7
61880;BME280;47817;52.798;27.544;2023-02-28T22:01:32;1029.6;;;0.7;63.9
61880;BME280;47817;52.798;27.544;2023-02-28T22:06:59;1029.5;;;0.7;64.1
61880;BME280;47817;52.798;27.544;2023-02-28T22:11:49;1029.5;;;0.7;64.3
61880;BME280;47817;52.798;27.544;2023-02-28T22:16:57;1029.5;;;0.7;64.3
61880;BME280;47817;52.798;27.544;2023-02-28T22:21:12;1029.4;;;0.8;64.2
61880;BME280;47817;52.798;27.544;2023-02-28T22:26:12;1029.4;;;0.9;64.3
61880;BME280;47817;52.798;27.544;2023-02-28T22:31:59;1029.5;;;1;64.3
61880;BME280;47817;52.798;27.544;2023-02-28T22:36:49;1029.5;;;1.1;64.3
61880;BME280;47817;52.798;27.544;2023-02-28T22:41:57;1029.5;;;1.1;64.5
61880;BME280;47817;52.798;27.544;2023-02-28T22:46:20;1029.4;;;1.2;64.5
61880;BME280;47817;52.798;27.544;2023-02-28T22:51:12;1029.5;;;1.2;64.6
61880;BME280;47817;52.798;27.544;2023-02-28T22:56:55;1029.6;;;1.2;64.8
61880;BME280;47817;52.798;27.544;2023-02-28T23:01:28;1029.6;;;1.3;64.9
61880;BME280;47817;52.798;27.544;2023-02-28T23:06:59;1029.6;;;1.3;65
61880;BME280;47817;52.798;27.544;2023-02-28T23:11:16;1029.6;;;1.4;65
61880;BME280;47817;52.798;27.544;2023-02-28T23:16:24;1029.6;;;1.4;65.1
61880;BME280;47817;52.798;27.544;2023-02-28T23:21:58;1029.9;;;1.4;65.6
61880;BME280;47817;52.798;27.544;2023-02-28T23:26:46;1030;;;1.5;65.7
61880;BME280;47817;52.798;27.544;2023-02-28T23:31:43;1030.1;;;1.6;65.8
61880;BME280;47817;52.798;27.544;2023-02-28T23:36:31;1030;;;1.6;66.3
61880;BME280;47817;52.798;27.544;2023-02-28T23:41:23;1030;;;1.6;66.9
61880;BME280;47817;52.798;27.544;2023-02-28T23:46:55;1029.9;;;1.6;67.7
61880;BME280;47817;52.798;27.544;2023-02-28T23:51:45;1029.8;;;1.7;68.4
61880;BME280;47817;52.798;27.544;2023-02-28T23:56:55;1029.8;;;1.7;69.1
